Impacts TAF Board INFO
FOR SITUATIONAL AWARENESS. NOT TO BE USED FOR FLIGHT PLANNING PURPOSES.
IDs:

KSAN - San Diego Intl Arpt, CA, US

Issued at 2135 UTC 14 Aug 2018
Updated at 2201 UTC 14 Aug 2018
Potential Impact None Slight Moderate High
Time<<15/22Z 15/23Z 16/00Z 16/01Z 16/02Z 16/03Z 16/04Z 16/05Z 16/06Z 16/07Z 16/08Z 16/09Z 16/10Z
Type PRVL PRVL
VIS >6 >6
CIG -- --
Cover FEW FEW
FltCat VFR VFR
WX -- --
WDir 290 290
WSpd 10 10
WGst -- --

Raw TAF
KSAN 142135Z 1422/1524 28007KT P6SM SCT020
  TEMPO 1422/1424 BKN019
  FM150200 VRB04KT P6SM SCT018
  FM151000 VRB04KT P6SM BKN018
  FM151500 VRB04KT P6SM SCT020
  FM151900 29010KT P6SM FEW080


METAR Board
Radar Display
Forecast Discussion

FOR SITUATIONAL AWARENESS. NOT TO BE USED FOR FLIGHT PLANNING PURPOSES.